createdAt,value
2017-12-31T00:00:57.105Z,2.07
2017-12-31T00:05:58.648Z,5.93
2017-12-31T00:11:00.170Z,6.97
2017-12-31T00:16:01.725Z,8.27
2017-12-31T00:21:03.164Z,10.23
2017-12-31T00:26:04.689Z,6.10
2017-12-31T00:31:06.228Z,2.40
2017-12-31T00:36:07.775Z,2.97
2017-12-31T00:41:09.334Z,3.10
2017-12-31T00:46:10.842Z,3.07
2017-12-31T00:51:12.396Z,5.70
2017-12-31T00:56:14.034Z,1.57
2017-12-31T01:01:15.498Z,3.60
2017-12-31T01:06:17.031Z,0.60
2017-12-31T01:11:18.607Z,1.93
2017-12-31T01:16:20.842Z,1.00
2017-12-31T01:21:22.371Z,0.80
2017-12-31T01:26:23.981Z,0.70
2017-12-31T01:31:25.525Z,0.73
2017-12-31T01:36:27.085Z,2.40
2017-12-31T01:41:28.569Z,3.30
2017-12-31T01:46:30.135Z,1.80
2017-12-31T01:51:31.617Z,1.80
2017-12-31T01:56:33.154Z,0.93
2017-12-31T02:01:34.679Z,0.80
2017-12-31T02:06:36.957Z,3.20
2017-12-31T02:11:38.505Z,1.30
2017-12-31T02:16:40.036Z,2.87
2017-12-31T02:21:41.588Z,2.17
2017-12-31T02:26:43.868Z,2.30
2017-12-31T02:31:45.415Z,1.53
2017-12-31T02:36:46.890Z,2.13
2017-12-31T02:41:48.446Z,9.13
2017-12-31T02:46:49.930Z,17.57
2017-12-31T02:51:51.496Z,19.87
2017-12-31T02:56:53.057Z,13.33
2017-12-31T03:01:54.612Z,20.03
2017-12-31T03:06:56.198Z,16.50
2017-12-31T03:11:57.729Z,16.87
2017-12-31T03:16:59.306Z,17.50
2017-12-31T03:22:00.819Z,9.50
2017-12-31T03:27:03.043Z,15.47
2017-12-31T03:32:04.567Z,14.40
2017-12-31T03:37:06.800Z,10.70
2017-12-31T03:42:08.330Z,6.13
2017-12-31T03:47:10.595Z,9.63
2017-12-31T03:52:12.167Z,8.73
2017-12-31T03:57:14.422Z,8.13
2017-12-31T04:02:15.925Z,8.60
2017-12-31T04:07:18.349Z,7.77
2017-12-31T04:12:20.336Z,10.10
2017-12-31T04:17:21.854Z,13.70
2017-12-31T04:22:24.133Z,13.63
2017-12-31T04:27:25.688Z,8.20
2017-12-31T04:32:27.189Z,9.47
2017-12-31T04:37:29.430Z,13.13
2017-12-31T04:42:30.900Z,12.43
2017-12-31T04:47:32.397Z,12.90
2017-12-31T04:52:34.685Z,13.80
2017-12-31T04:57:36.968Z,11.40
2017-12-31T05:02:39.240Z,19.87
2017-12-31T05:07:40.785Z,22.77
2017-12-31T05:12:42.345Z,18.43
2017-12-31T05:17:43.864Z,17.10
2017-12-31T05:22:45.415Z,16.33
2017-12-31T05:27:47.757Z,14.23
2017-12-31T05:32:49.289Z,20.87
2017-12-31T05:37:51.629Z,14.17
2017-12-31T05:42:53.132Z,11.37
2017-12-31T05:47:55.486Z,9.47
2017-12-31T05:52:57.036Z,11.73
2017-12-31T05:57:58.551Z,9.27
2017-12-31T06:03:01.008Z,9.10
2017-12-31T06:08:02.503Z,11.97
2017-12-31T06:13:04.797Z,12.40
2017-12-31T06:18:07.086Z,7.83
2017-12-31T06:23:08.530Z,13.47
2017-12-31T06:28:10.072Z,11.63
2017-12-31T06:33:11.619Z,6.57
2017-12-31T06:38:13.222Z,7.43
2017-12-31T06:43:14.736Z,11.10
2017-12-31T06:48:16.239Z,12.00
2017-12-31T06:53:17.814Z,7.40
2017-12-31T06:58:19.374Z,7.37
2017-12-31T07:03:20.888Z,7.83
2017-12-31T07:08:23.126Z,10.80
2017-12-31T07:13:24.618Z,5.47
2017-12-31T07:18:26.172Z,6.33
2017-12-31T07:23:27.672Z,10.83
2017-12-31T07:28:29.920Z,7.77
2017-12-31T07:33:31.439Z,4.43
2017-12-31T07:38:32.902Z,4.60
2017-12-31T07:43:34.331Z,8.03
2017-12-31T07:48:35.827Z,14.30
2017-12-31T07:53:37.373Z,6.30
2017-12-31T07:58:38.884Z,8.40
2017-12-31T08:03:40.429Z,10.80
2017-12-31T08:08:41.942Z,12.97
2017-12-31T08:13:43.467Z,11.00
2017-12-31T08:18:44.982Z,8.47
2017-12-31T08:23:46.478Z,8.90
2017-12-31T08:28:48.750Z,15.33
2017-12-31T08:33:50.223Z,11.70
2017-12-31T08:38:51.680Z,11.93
2017-12-31T08:43:53.195Z,7.53
2017-12-31T08:48:54.711Z,13.50
2017-12-31T08:53:56.476Z,11.70
2017-12-31T08:58:57.965Z,11.33
2017-12-31T09:03:59.499Z,15.03
2017-12-31T09:09:01.284Z,4.43
2017-12-31T09:14:02.810Z,4.80
2017-12-31T09:19:04.303Z,6.23
2017-12-31T09:24:06.057Z,16.67
2017-12-31T09:29:07.598Z,10.00
2017-12-31T09:34:09.923Z,18.90
2017-12-31T09:39:11.459Z,10.97
2017-12-31T09:44:12.963Z,9.93
2017-12-31T09:49:14.453Z,17.03
2017-12-31T09:54:16.284Z,14.20
2017-12-31T09:59:17.792Z,14.53
2017-12-31T10:04:19.431Z,14.03
2017-12-31T10:09:20.873Z,8.00
2017-12-31T10:14:22.354Z,13.77
2017-12-31T10:19:23.962Z,9.10
2017-12-31T10:24:25.537Z,5.60
2017-12-31T10:29:27.097Z,8.50
2017-12-31T10:34:28.735Z,9.33
2017-12-31T10:39:30.330Z,7.13
2017-12-31T10:44:31.997Z,10.07
2017-12-31T10:49:33.574Z,7.03
2017-12-31T10:54:35.083Z,6.30
2017-12-31T10:59:36.630Z,9.83
2017-12-31T11:04:38.980Z,4.80
2017-12-31T11:09:40.483Z,11.67
2017-12-31T11:14:42.713Z,8.30
2017-12-31T11:19:44.174Z,13.27
2017-12-31T11:24:45.687Z,12.60
2017-12-31T11:29:47.174Z,15.80
2017-12-31T11:34:49.430Z,12.53
2017-12-31T11:39:51.018Z,8.00
2017-12-31T11:44:53.374Z,11.13
2017-12-31T11:49:54.918Z,11.03
2017-12-31T11:54:56.489Z,5.73
2017-12-31T11:59:58.000Z,23.77
2017-12-31T12:04:59.546Z,8.17
2017-12-31T12:10:01.021Z,6.23
2017-12-31T12:15:02.554Z,8.33
2017-12-31T12:20:04.156Z,9.47
2017-12-31T12:25:05.601Z,9.80
2017-12-31T12:30:07.096Z,11.10
2017-12-31T12:35:08.649Z,5.53
2017-12-31T12:40:10.104Z,6.30
2017-12-31T12:45:11.678Z,7.20
2017-12-31T12:50:13.163Z,10.67
2017-12-31T12:55:14.736Z,7.70
2017-12-31T13:00:16.431Z,7.40
2017-12-31T13:05:18.748Z,10.23
2017-12-31T13:10:20.385Z,4.77
2017-12-31T13:15:22.653Z,6.70
2017-12-31T13:20:24.214Z,4.80
2017-12-31T13:25:25.707Z,7.80
2017-12-31T13:30:28.061Z,13.13
2017-12-31T13:35:29.591Z,7.07
2017-12-31T13:40:31.068Z,6.07
2017-12-31T13:45:32.650Z,10.90
2017-12-31T13:50:34.180Z,6.80
2017-12-31T13:55:35.742Z,8.47
2017-12-31T14:00:37.302Z,9.83
2017-12-31T14:05:39.497Z,8.70
2017-12-31T14:10:41.043Z,6.07
2017-12-31T14:15:43.272Z,6.57
2017-12-31T14:20:44.755Z,8.47
2017-12-31T14:25:46.323Z,4.80
2017-12-31T14:30:47.906Z,8.83
2017-12-31T14:35:49.453Z,7.13
2017-12-31T14:40:51.017Z,4.07
2017-12-31T14:45:53.455Z,4.70
2017-12-31T14:50:55.059Z,3.70
2017-12-31T14:55:56.544Z,5.63
2017-12-31T15:00:58.104Z,5.40
2017-12-31T15:06:00.282Z,6.07
2017-12-31T15:11:01.870Z,5.93
2017-12-31T15:16:03.375Z,3.30
2017-12-31T15:21:04.833Z,3.07
2017-12-31T15:26:06.308Z,8.13
2017-12-31T15:31:08.506Z,3.57
2017-12-31T15:36:10.034Z,4.40
2017-12-31T15:41:11.555Z,36.60
2017-12-31T15:46:13.215Z,3.70
2017-12-31T15:51:14.831Z,6.07
2017-12-31T15:56:16.325Z,5.00
2017-12-31T16:01:18.623Z,4.77
2017-12-31T16:06:20.872Z,3.63
2017-12-31T16:11:22.396Z,6.43
2017-12-31T16:16:23.961Z,4.40
2017-12-31T16:21:25.483Z,12.60
2017-12-31T16:26:27.195Z,3.87
2017-12-31T16:31:28.696Z,6.70
2017-12-31T16:36:30.135Z,8.93
2017-12-31T16:41:31.872Z,5.20
2017-12-31T16:46:34.065Z,13.03
2017-12-31T16:51:36.341Z,10.07
2017-12-31T16:56:38.848Z,6.57
2017-12-31T17:01:40.411Z,6.90
2017-12-31T17:06:42.693Z,7.53
2017-12-31T17:11:44.980Z,13.93
2017-12-31T17:16:47.345Z,8.23
2017-12-31T17:21:48.799Z,8.10
2017-12-31T17:26:50.336Z,8.30
2017-12-31T17:31:51.855Z,6.37
2017-12-31T17:36:54.181Z,7.07
2017-12-31T17:41:55.798Z,14.23
2017-12-31T17:46:57.307Z,11.00
2017-12-31T17:51:58.833Z,21.10
2017-12-31T17:57:00.400Z,14.20
2017-12-31T18:02:01.979Z,12.63
2017-12-31T18:07:03.515Z,27.67
2017-12-31T18:12:05.224Z,7.70
2017-12-31T18:17:07.491Z,6.67
2017-12-31T18:22:09.247Z,8.87
2017-12-31T18:27:10.816Z,6.97
2017-12-31T18:32:12.368Z,5.80
2017-12-31T18:37:13.842Z,6.83
2017-12-31T18:42:15.391Z,4.90
2017-12-31T18:47:16.989Z,8.07
2017-12-31T18:52:18.587Z,8.30
2017-12-31T18:57:20.022Z,10.67
2017-12-31T19:02:21.600Z,8.90
2017-12-31T19:07:23.145Z,13.40
2017-12-31T19:12:24.684Z,9.53
2017-12-31T19:17:26.194Z,20.37
2017-12-31T19:22:27.824Z,30.33
2017-12-31T19:27:29.298Z,9.47
2017-12-31T19:32:30.871Z,12.97
2017-12-31T19:37:32.400Z,8.93
2017-12-31T19:42:34.717Z,13.10
2017-12-31T19:47:36.260Z,10.40
2017-12-31T19:52:37.718Z,12.90
2017-12-31T19:57:39.968Z,9.40
2017-12-31T20:02:41.428Z,8.20
2017-12-31T20:07:42.942Z,7.83
2017-12-31T20:12:45.248Z,9.90
2017-12-31T20:17:46.769Z,14.03
2017-12-31T20:22:48.275Z,7.73
2017-12-31T20:27:49.859Z,7.80
2017-12-31T20:32:51.344Z,12.53
2017-12-31T20:37:52.854Z,11.63
2017-12-31T20:42:55.136Z,15.97
2017-12-31T20:47:57.473Z,12.47
2017-12-31T20:52:59.012Z,14.63
2017-12-31T20:58:00.508Z,15.50
2017-12-31T21:03:02.036Z,12.50
2017-12-31T21:08:03.572Z,12.50
2017-12-31T21:13:05.127Z,9.60
2017-12-31T21:18:06.925Z,11.00
2017-12-31T21:23:09.182Z,12.13
2017-12-31T21:28:10.686Z,11.47
2017-12-31T21:33:12.957Z,10.70
2017-12-31T21:38:14.443Z,9.10
2017-12-31T21:43:16.674Z,7.70
2017-12-31T21:48:18.222Z,8.57
2017-12-31T21:53:19.852Z,22.10
2017-12-31T21:58:22.119Z,9.20
2017-12-31T22:03:23.696Z,9.10
2017-12-31T22:08:25.349Z,9.97
2017-12-31T22:13:26.807Z,8.27
2017-12-31T22:18:28.247Z,15.83
2017-12-31T22:23:29.792Z,5.40
2017-12-31T22:28:31.328Z,6.90
2017-12-31T22:33:32.865Z,9.30
2017-12-31T22:38:34.351Z,5.53
2017-12-31T22:43:35.894Z,3.40
2017-12-31T22:48:37.432Z,6.90
2017-12-31T22:53:39.068Z,5.10
2017-12-31T22:58:40.560Z,16.00
2017-12-31T23:03:42.906Z,350.20
2017-12-31T23:08:44.420Z,870.13
2017-12-31T23:13:45.995Z,1156.70
2017-12-31T23:18:47.533Z,495.60
2017-12-31T23:23:49.928Z,300.93
2017-12-31T23:28:51.484Z,996.47
2017-12-31T23:33:53.026Z,384.90
2017-12-31T23:38:54.566Z,258.47
2017-12-31T23:43:56.095Z,94.20
2017-12-31T23:48:58.388Z,29.47
2017-12-31T23:54:00.790Z,36.53
2017-12-31T23:59:03.173Z,60.37
